createdAt,value
2017-08-16T00:00:26.546Z,22.45
2017-08-16T00:01:07.114Z,22.35
2017-08-16T00:01:47.717Z,22.44
2017-08-16T00:02:28.283Z,22.38
2017-08-16T00:03:08.869Z,22.47
2017-08-16T00:03:49.441Z,22.43
2017-08-16T00:04:30.018Z,22.43
2017-08-16T00:05:10.587Z,22.45
2017-08-16T00:05:51.172Z,22.36
2017-08-16T00:06:31.750Z,22.25
2017-08-16T00:07:12.322Z,22.33
2017-08-16T00:07:52.892Z,22.38
2017-08-16T00:08:33.456Z,22.33
2017-08-16T00:09:14.035Z,22.39
2017-08-16T00:09:54.611Z,22.29
2017-08-16T00:10:35.194Z,22.26
2017-08-16T00:11:15.782Z,22.23
2017-08-16T00:11:56.382Z,22.2
2017-08-16T00:12:36.945Z,22.25
2017-08-16T00:13:17.537Z,22.3
2017-08-16T00:13:58.122Z,22.22
2017-08-16T00:14:38.705Z,22.28
2017-08-16T00:15:19.271Z,22.26
2017-08-16T00:15:59.857Z,22.23
2017-08-16T00:16:40.428Z,22.22
2017-08-16T00:17:21.006Z,22.28
2017-08-16T00:18:01.588Z,22.25
2017-08-16T00:18:42.175Z,22.33
2017-08-16T00:19:22.756Z,22.26
2017-08-16T00:20:03.330Z,22.23
2017-08-16T00:20:43.915Z,22.28
2017-08-16T00:21:24.482Z,22.29
2017-08-16T00:22:05.056Z,22.23
2017-08-16T00:22:45.632Z,22.32
2017-08-16T00:23:26.210Z,22.23
2017-08-16T00:24:06.768Z,22.18
2017-08-16T00:24:47.343Z,22.22
2017-08-16T00:25:27.917Z,22.3
2017-08-16T00:26:08.529Z,22.22
2017-08-16T00:26:55.692Z,22.23
2017-08-16T00:27:36.291Z,22.28
2017-08-16T00:28:16.861Z,22.26
2017-08-16T00:28:57.450Z,22.15
2017-08-16T00:29:38.036Z,22.28
2017-08-16T00:30:18.600Z,22.22
2017-08-16T00:30:59.181Z,22.2
2017-08-16T00:31:39.775Z,22.28
2017-08-16T00:32:20.338Z,22.26
2017-08-16T00:33:00.920Z,22.26
2017-08-16T00:33:41.528Z,22.22
2017-08-16T00:34:22.090Z,22.28
2017-08-16T00:35:02.676Z,22.22
2017-08-16T00:35:43.248Z,22.15
2017-08-16T00:36:23.812Z,22.25
2017-08-16T00:37:04.385Z,22.26
2017-08-16T00:37:44.948Z,22.22
2017-08-16T00:38:25.535Z,22.22
2017-08-16T00:39:06.133Z,22.29
2017-08-16T00:39:46.697Z,22.36
2017-08-16T00:40:27.299Z,22.18
2017-08-16T00:41:07.869Z,22.25
2017-08-16T00:41:48.445Z,22.26
2017-08-16T00:42:29.028Z,22.23
2017-08-16T00:43:09.604Z,22.22
2017-08-16T00:43:50.174Z,22.15
2017-08-16T00:44:30.766Z,22.22
2017-08-16T00:45:11.351Z,22.18
2017-08-16T00:45:51.904Z,22.25
2017-08-16T00:46:32.484Z,22.18
2017-08-16T00:47:13.052Z,22.2
2017-08-16T00:47:53.627Z,22.28
2017-08-16T00:48:34.186Z,22.17
2017-08-16T00:49:14.759Z,22.14
2017-08-16T00:49:55.339Z,22.17
2017-08-16T00:50:35.901Z,22.14
2017-08-16T00:51:16.485Z,22.11
2017-08-16T00:51:57.069Z,22.14
2017-08-16T00:52:37.634Z,22.23
2017-08-16T00:53:18.195Z,22.17
2017-08-16T00:53:58.764Z,22.23
2017-08-16T00:54:39.340Z,22.15
2017-08-16T00:55:19.918Z,22.15
2017-08-16T00:56:00.487Z,22.22
2017-08-16T00:56:41.056Z,22.18
2017-08-16T00:57:21.646Z,22.14
2017-08-16T00:58:02.223Z,22.14
2017-08-16T00:58:42.791Z,22.13
2017-08-16T00:59:23.370Z,22.1
2017-08-16T01:00:03.954Z,22.17
2017-08-16T01:00:44.525Z,22.22
2017-08-16T01:01:25.101Z,22.15
2017-08-16T01:02:05.672Z,22.1
2017-08-16T01:02:46.259Z,22.11
2017-08-16T01:03:26.841Z,22.11
2017-08-16T01:04:07.401Z,22.15
2017-08-16T01:04:47.980Z,22.18
2017-08-16T01:05:28.568Z,22.15
2017-08-16T01:06:09.142Z,22.22
2017-08-16T01:06:49.712Z,22.1
2017-08-16T01:07:30.284Z,22.2
2017-08-16T01:08:10.873Z,22.15
2017-08-16T01:08:51.448Z,22.15
2017-08-16T01:09:32.037Z,22.11
2017-08-16T01:10:12.603Z,22.14
2017-08-16T01:10:53.178Z,22.14
2017-08-16T01:11:33.752Z,22.15
2017-08-16T01:12:14.318Z,22.15
2017-08-16T01:12:54.897Z,22.13
2017-08-16T01:13:35.484Z,22.18
2017-08-16T01:14:16.062Z,22.17
2017-08-16T01:14:56.653Z,22.08
2017-08-16T01:15:37.240Z,22.02
2017-08-16T01:16:17.809Z,22.11
2017-08-16T01:16:58.388Z,22.15
2017-08-16T01:17:38.957Z,22.04
2017-08-16T01:18:19.537Z,22.04
2017-08-16T01:19:00.094Z,22.11
2017-08-16T01:19:40.686Z,22.08
2017-08-16T01:20:21.257Z,22.1
2017-08-16T01:21:01.842Z,22.08
2017-08-16T01:21:42.430Z,22.15
2017-08-16T01:22:23.036Z,22.07
2017-08-16T01:23:03.612Z,22.02
2017-08-16T01:23:44.194Z,22.11
2017-08-16T01:24:24.759Z,22.13
2017-08-16T01:25:05.351Z,22.13
2017-08-16T01:25:45.919Z,21.99
2017-08-16T01:26:26.489Z,22
2017-08-16T01:27:07.081Z,22.15
2017-08-16T01:27:47.649Z,22.06
2017-08-16T01:28:28.217Z,22
2017-08-16T01:29:08.786Z,22.04
2017-08-16T01:29:49.362Z,22.06
2017-08-16T01:30:29.938Z,22.13
2017-08-16T01:31:10.501Z,22.08
2017-08-16T01:31:51.071Z,22.06
2017-08-16T01:32:31.658Z,22.02
2017-08-16T01:33:12.232Z,22.08
2017-08-16T01:33:52.813Z,22.04
2017-08-16T01:34:33.395Z,22.14
2017-08-16T01:35:13.956Z,22.17
2017-08-16T01:35:54.524Z,22.07
2017-08-16T01:36:35.096Z,22.02
2017-08-16T01:37:15.713Z,22.08
2017-08-16T01:37:56.280Z,22
2017-08-16T01:38:36.853Z,22.08
2017-08-16T01:39:17.431Z,22.06
2017-08-16T01:39:57.998Z,22.1
2017-08-16T01:40:38.579Z,22.06
2017-08-16T01:41:19.150Z,22.1
2017-08-16T01:41:59.722Z,22.07
2017-08-16T01:42:40.319Z,22.07
2017-08-16T01:43:20.897Z,22.04
2017-08-16T01:44:01.493Z,22
2017-08-16T01:44:42.064Z,22.02
2017-08-16T01:45:22.640Z,22.02
2017-08-16T01:46:03.210Z,22.06
2017-08-16T01:46:43.793Z,21.98
2017-08-16T01:47:24.376Z,22.02
2017-08-16T01:48:04.970Z,21.91
2017-08-16T01:48:45.553Z,22.02
2017-08-16T01:49:26.120Z,21.92
2017-08-16T01:50:06.697Z,21.96
2017-08-16T01:50:47.270Z,21.95
2017-08-16T01:51:27.843Z,21.95
2017-08-16T01:52:08.445Z,21.93
2017-08-16T01:52:49.020Z,21.89
2017-08-16T01:53:29.610Z,21.88
2017-08-16T01:54:10.226Z,21.89
2017-08-16T01:54:50.794Z,21.85
2017-08-16T01:55:31.394Z,21.92
2017-08-16T01:56:11.965Z,21.83
2017-08-16T01:56:52.560Z,21.83
2017-08-16T01:57:33.135Z,21.82
2017-08-16T01:58:13.718Z,21.91
2017-08-16T01:58:54.302Z,21.91
2017-08-16T01:59:34.869Z,21.83
2017-08-16T02:00:15.453Z,21.89
2017-08-16T02:00:56.020Z,21.95
2017-08-16T02:01:36.599Z,21.92
2017-08-16T02:02:17.201Z,21.8
2017-08-16T02:02:57.777Z,21.88
2017-08-16T02:03:38.370Z,21.92
2017-08-16T02:04:18.953Z,21.95
2017-08-16T02:04:59.524Z,21.85
2017-08-16T02:05:40.097Z,21.88
2017-08-16T02:06:20.672Z,21.96
2017-08-16T02:07:01.234Z,21.85
2017-08-16T02:07:41.804Z,21.95
2017-08-16T02:08:22.379Z,21.85
2017-08-16T02:09:02.966Z,21.79
2017-08-16T02:09:43.534Z,21.91
2017-08-16T02:10:24.113Z,21.8
2017-08-16T02:11:04.710Z,21.79
2017-08-16T02:11:45.295Z,21.88
2017-08-16T02:12:25.869Z,21.88
2017-08-16T02:13:06.441Z,21.83
2017-08-16T02:13:47.008Z,21.92
2017-08-16T02:14:27.597Z,21.85
2017-08-16T02:15:08.161Z,21.83
2017-08-16T02:15:48.740Z,21.88
2017-08-16T02:16:29.322Z,21.82
2017-08-16T02:17:09.901Z,21.83
2017-08-16T02:17:50.473Z,21.8
2017-08-16T02:18:31.045Z,21.8
2017-08-16T02:19:11.640Z,21.83
2017-08-16T02:19:52.223Z,21.85
2017-08-16T02:20:32.827Z,21.83
2017-08-16T02:21:13.392Z,21.82
2017-08-16T02:21:53.983Z,21.91
2017-08-16T02:22:34.558Z,21.77
2017-08-16T02:23:15.129Z,21.83
2017-08-16T02:23:55.703Z,21.91
2017-08-16T02:24:36.283Z,21.83
2017-08-16T02:25:16.855Z,21.77
2017-08-16T02:25:57.436Z,21.82
2017-08-16T02:26:38.021Z,21.79
2017-08-16T02:27:18.591Z,21.89
2017-08-16T02:27:59.176Z,21.82
2017-08-16T02:28:39.734Z,21.82
2017-08-16T02:29:20.299Z,21.82
2017-08-16T02:30:00.878Z,21.83
2017-08-16T02:30:41.464Z,21.82
2017-08-16T02:31:22.013Z,21.89
2017-08-16T02:32:02.588Z,21.79
2017-08-16T02:32:43.161Z,21.7
2017-08-16T02:33:23.752Z,21.85
2017-08-16T02:34:04.326Z,21.79
2017-08-16T02:34:44.898Z,21.8
2017-08-16T02:35:25.480Z,21.82
2017-08-16T02:36:06.058Z,21.77
2017-08-16T02:36:46.632Z,21.8
2017-08-16T02:37:27.221Z,21.75
2017-08-16T02:38:07.793Z,21.79
2017-08-16T02:38:48.361Z,21.82
2017-08-16T02:39:28.951Z,21.76
2017-08-16T02:40:09.542Z,21.73
2017-08-16T02:40:50.111Z,21.7
2017-08-16T02:41:30.691Z,21.64
2017-08-16T02:42:11.276Z,21.72
2017-08-16T02:42:51.853Z,21.57
2017-08-16T02:43:32.444Z,21.7
2017-08-16T02:44:13.020Z,21.62
2017-08-16T02:44:53.590Z,21.67
2017-08-16T02:45:34.182Z,21.6
2017-08-16T02:46:14.748Z,21.73
2017-08-16T02:46:55.328Z,21.69
2017-08-16T02:47:35.918Z,21.7
2017-08-16T02:48:16.517Z,21.66
2017-08-16T02:48:57.094Z,21.7
2017-08-16T02:49:37.704Z,21.6
2017-08-16T02:50:18.273Z,21.57
2017-08-16T02:50:58.840Z,21.57
2017-08-16T02:51:39.421Z,21.75
2017-08-16T02:52:19.999Z,21.69
2017-08-16T02:53:00.587Z,21.61
2017-08-16T02:53:41.172Z,21.69
2017-08-16T02:54:21.736Z,21.58
2017-08-16T02:55:02.303Z,21.69
2017-08-16T02:55:42.870Z,21.7
2017-08-16T02:56:23.445Z,21.6
2017-08-16T02:57:04.019Z,21.7
2017-08-16T02:57:44.594Z,21.69
2017-08-16T02:58:25.158Z,21.67
2017-08-16T02:59:05.738Z,21.77
2017-08-16T02:59:46.310Z,21.64
2017-08-16T03:00:26.919Z,21.66
2017-08-16T03:01:07.486Z,21.62
2017-08-16T03:01:48.063Z,21.61
2017-08-16T03:02:28.636Z,21.72
2017-08-16T03:03:09.214Z,21.51
2017-08-16T03:03:49.779Z,21.64
2017-08-16T03:04:30.364Z,21.55
2017-08-16T03:05:10.939Z,21.6
2017-08-16T03:05:51.611Z,21.64
2017-08-16T03:06:32.196Z,21.52
2017-08-16T03:07:12.784Z,21.6
2017-08-16T03:07:53.365Z,21.64
2017-08-16T03:08:33.977Z,21.55
2017-08-16T03:09:14.565Z,21.6
2017-08-16T03:09:55.155Z,21.51
2017-08-16T03:10:35.733Z,21.58
2017-08-16T03:11:16.305Z,21.57
2017-08-16T03:11:56.895Z,21.58
2017-08-16T03:12:37.484Z,21.6
2017-08-16T03:13:18.075Z,21.57
2017-08-16T03:13:58.643Z,21.54
2017-08-16T03:14:39.216Z,21.54
2017-08-16T03:15:19.794Z,21.6
2017-08-16T03:16:00.377Z,21.5
2017-08-16T03:16:40.960Z,21.48
2017-08-16T03:17:21.553Z,21.52
2017-08-16T03:18:02.155Z,21.54
2017-08-16T03:18:42.749Z,21.54
2017-08-16T03:19:23.348Z,21.51
2017-08-16T03:20:03.933Z,21.48
2017-08-16T03:20:44.508Z,21.45
2017-08-16T03:21:25.080Z,21.42
2017-08-16T03:22:05.655Z,21.48
2017-08-16T03:22:46.250Z,21.5
2017-08-16T03:23:26.862Z,21.43
2017-08-16T03:24:07.426Z,21.5
2017-08-16T03:24:48.006Z,21.43
2017-08-16T03:25:28.585Z,21.58
2017-08-16T03:26:09.184Z,21.48
2017-08-16T03:26:49.753Z,21.4
2017-08-16T03:27:30.318Z,21.5
2017-08-16T03:28:10.896Z,21.43
2017-08-16T03:28:51.493Z,21.45
2017-08-16T03:29:32.079Z,21.45
2017-08-16T03:30:12.651Z,21.39
2017-08-16T03:30:53.258Z,21.35
2017-08-16T03:31:33.856Z,21.45
2017-08-16T03:32:14.443Z,21.37
2017-08-16T03:32:55.039Z,21.36
2017-08-16T03:33:35.611Z,21.45
2017-08-16T03:34:16.181Z,21.46
2017-08-16T03:34:56.776Z,21.39
2017-08-16T03:35:37.364Z,21.39
2017-08-16T03:36:17.978Z,21.48
2017-08-16T03:36:58.550Z,21.48
2017-08-16T03:37:39.115Z,21.48
2017-08-16T03:38:19.686Z,21.46
2017-08-16T03:39:00.258Z,21.37
2017-08-16T03:39:40.833Z,21.37
2017-08-16T03:40:21.413Z,21.39
2017-08-16T03:41:01.997Z,21.37
2017-08-16T03:41:42.586Z,21.36
2017-08-16T03:42:23.171Z,21.43
2017-08-16T03:43:03.748Z,21.4
2017-08-16T03:43:44.323Z,21.4
2017-08-16T03:44:24.893Z,21.39
2017-08-16T03:45:05.461Z,21.29
2017-08-16T03:45:46.057Z,21.39
2017-08-16T03:46:26.648Z,21.39
2017-08-16T03:47:07.250Z,21.37
2017-08-16T03:47:47.834Z,21.35
2017-08-16T03:48:28.398Z,21.33
2017-08-16T03:49:08.980Z,21.35
2017-08-16T03:49:49.562Z,21.33
2017-08-16T03:50:30.145Z,21.39
2017-08-16T03:51:10.732Z,21.39
2017-08-16T03:51:51.317Z,21.25
2017-08-16T03:52:31.892Z,21.37
2017-08-16T03:53:12.460Z,21.37
2017-08-16T03:53:53.025Z,21.32
2017-08-16T03:54:33.593Z,21.32
2017-08-16T03:55:14.179Z,21.29
2017-08-16T03:55:54.754Z,21.29
2017-08-16T03:56:35.315Z,21.3
2017-08-16T03:57:15.902Z,21.3
2017-08-16T03:57:56.471Z,21.27
2017-08-16T03:58:37.066Z,21.3
2017-08-16T03:59:17.673Z,21.3
2017-08-16T03:59:58.259Z,21.4
2017-08-16T04:00:38.846Z,21.37
2017-08-16T04:01:19.443Z,21.32
2017-08-16T04:02:00.035Z,21.29
2017-08-16T04:02:40.611Z,21.32
2017-08-16T04:03:21.197Z,21.33
2017-08-16T04:04:01.788Z,21.36
2017-08-16T04:04:42.364Z,21.36
2017-08-16T04:05:22.947Z,21.35
2017-08-16T04:06:03.530Z,21.43
2017-08-16T04:06:44.126Z,21.42
2017-08-16T04:07:24.715Z,21.37
2017-08-16T04:08:05.294Z,21.29
2017-08-16T04:08:45.874Z,21.36
2017-08-16T04:09:26.459Z,21.29
2017-08-16T04:10:07.057Z,21.32
2017-08-16T04:10:47.626Z,21.29
2017-08-16T04:11:28.210Z,21.37
2017-08-16T04:12:08.796Z,21.29
2017-08-16T04:12:49.379Z,21.25
2017-08-16T04:13:29.954Z,21.27
2017-08-16T04:14:10.537Z,21.37
2017-08-16T04:14:51.149Z,21.29
2017-08-16T04:15:31.726Z,21.3
2017-08-16T04:16:12.289Z,21.33
2017-08-16T04:16:52.858Z,21.3
2017-08-16T04:17:33.460Z,21.3
2017-08-16T04:18:14.028Z,21.36
2017-08-16T04:18:54.604Z,21.29
2017-08-16T04:19:35.195Z,21.29
2017-08-16T04:20:15.780Z,21.29
2017-08-16T04:20:56.353Z,21.33
2017-08-16T04:21:36.980Z,21.29
2017-08-16T04:22:17.550Z,21.29
2017-08-16T04:22:58.119Z,21.29
2017-08-16T04:23:38.705Z,21.36
2017-08-16T04:24:19.288Z,21.3
2017-08-16T04:24:59.877Z,21.42
2017-08-16T04:25:40.460Z,21.3
2017-08-16T04:26:21.035Z,21.32
2017-08-16T04:27:01.613Z,21.33
2017-08-16T04:27:42.230Z,21.36
2017-08-16T04:28:22.792Z,21.32
2017-08-16T04:29:03.356Z,21.4
2017-08-16T04:29:43.954Z,21.35
2017-08-16T04:30:24.534Z,21.32
2017-08-16T04:31:05.121Z,21.37
2017-08-16T04:31:45.689Z,21.39
2017-08-16T04:32:26.260Z,21.43
2017-08-16T04:33:06.832Z,21.32
2017-08-16T04:33:47.416Z,21.32
2017-08-16T04:34:27.992Z,21.25
2017-08-16T04:35:08.572Z,21.3
2017-08-16T04:35:49.147Z,21.36
2017-08-16T04:36:29.732Z,21.3
2017-08-16T04:37:10.350Z,21.33
2017-08-16T04:37:50.943Z,21.32
2017-08-16T04:38:31.541Z,21.29
2017-08-16T04:39:12.120Z,21.36
2017-08-16T04:39:52.686Z,21.3
2017-08-16T04:40:33.258Z,21.37
2017-08-16T04:41:13.828Z,21.35
2017-08-16T04:41:54.398Z,21.29
2017-08-16T04:42:34.974Z,21.32
2017-08-16T04:43:15.546Z,21.25
2017-08-16T04:43:56.119Z,21.27
2017-08-16T04:44:36.684Z,21.24
2017-08-16T04:45:17.253Z,21.21
2017-08-16T04:45:57.867Z,21.24
2017-08-16T04:46:38.466Z,21.29
2017-08-16T04:47:19.072Z,21.18
2017-08-16T04:47:59.660Z,21.24
2017-08-16T04:48:40.250Z,21.24
2017-08-16T04:49:20.828Z,21.29
2017-08-16T04:50:01.396Z,21.27
2017-08-16T04:50:41.981Z,21.22
2017-08-16T04:51:22.563Z,21.2
2017-08-16T04:52:03.160Z,21.22
2017-08-16T04:52:43.743Z,21.17
2017-08-16T04:53:24.300Z,21.25
2017-08-16T04:54:04.861Z,21.14
2017-08-16T04:54:45.434Z,21.22
2017-08-16T04:55:26.005Z,21.15
2017-08-16T04:56:06.589Z,21.15
2017-08-16T04:56:47.167Z,21.12
2017-08-16T04:57:27.753Z,21.15
2017-08-16T04:58:08.335Z,21.21
2017-08-16T04:58:48.908Z,21.2
2017-08-16T04:59:29.517Z,21.12
2017-08-16T05:00:10.073Z,21.2
2017-08-16T05:00:50.673Z,21.18
2017-08-16T05:01:31.254Z,21.11
2017-08-16T05:02:11.831Z,21.18
2017-08-16T05:02:52.417Z,21.17
2017-08-16T05:03:33.001Z,21.22
2017-08-16T05:04:13.589Z,21.22
2017-08-16T05:04:54.160Z,21.22
2017-08-16T05:05:34.748Z,21.15
2017-08-16T05:06:15.324Z,21.25
2017-08-16T05:06:55.887Z,21.17
2017-08-16T05:07:36.475Z,21.18
2017-08-16T05:08:17.042Z,21.15
2017-08-16T05:08:57.615Z,21.24
2017-08-16T05:09:38.200Z,21.17
2017-08-16T05:10:18.792Z,21.14
2017-08-16T05:10:59.359Z,21.12
2017-08-16T05:11:39.949Z,21.22
2017-08-16T05:12:20.555Z,21.15
2017-08-16T05:13:01.129Z,21.2
2017-08-16T05:13:41.706Z,21.17
2017-08-16T05:14:22.295Z,21.17
2017-08-16T05:15:02.880Z,21.22
2017-08-16T05:15:43.456Z,21.22
2017-08-16T05:16:24.023Z,21.17
2017-08-16T05:17:04.589Z,21.21
2017-08-16T05:17:45.167Z,21.15
2017-08-16T05:18:25.741Z,21.2
2017-08-16T05:19:06.345Z,21.2
2017-08-16T05:19:46.906Z,21.22
2017-08-16T05:20:27.493Z,21.18
2017-08-16T05:21:08.071Z,21.09
2017-08-16T05:21:48.637Z,21.2
2017-08-16T05:22:29.211Z,21.17
2017-08-16T05:23:09.773Z,21.18
2017-08-16T05:23:50.349Z,21.24
2017-08-16T05:24:30.939Z,21.18
2017-08-16T05:25:11.521Z,21.15
2017-08-16T05:25:52.077Z,21.15
2017-08-16T05:26:32.634Z,21.09
2017-08-16T05:27:13.219Z,21.18
2017-08-16T05:27:53.791Z,21.07
2017-08-16T05:28:34.383Z,21.14
2017-08-16T05:29:14.959Z,21.15
2017-08-16T05:29:55.538Z,21.11
2017-08-16T05:30:36.131Z,21.15
2017-08-16T05:31:16.709Z,21.09
2017-08-16T05:31:57.284Z,21.18
2017-08-16T05:32:37.861Z,21.09
2017-08-16T05:33:18.433Z,21.12
2017-08-16T05:33:59.016Z,21.09
2017-08-16T05:34:39.603Z,21.06
2017-08-16T05:35:20.182Z,21.06
2017-08-16T05:36:00.765Z,21.07
2017-08-16T05:36:41.345Z,21.15
2017-08-16T05:37:21.934Z,21.17
2017-08-16T05:38:02.492Z,21.18
2017-08-16T05:38:43.073Z,21.11
2017-08-16T05:39:23.649Z,21.15
2017-08-16T05:40:04.234Z,21.17
2017-08-16T05:40:44.807Z,21.18
2017-08-16T05:41:25.377Z,21.2
2017-08-16T05:42:05.948Z,21.07
2017-08-16T05:42:46.508Z,21.2
2017-08-16T05:43:27.101Z,21.12
2017-08-16T05:44:07.688Z,21.12
2017-08-16T05:44:48.272Z,21.21
2017-08-16T05:45:28.853Z,21.24
2017-08-16T05:46:09.442Z,21.18
2017-08-16T05:46:50.053Z,21.21
2017-08-16T05:47:30.615Z,21.17
2017-08-16T05:48:11.189Z,21.17
2017-08-16T05:48:51.749Z,21.2
2017-08-16T05:49:32.326Z,21.21
2017-08-16T05:50:12.923Z,21.24
2017-08-16T05:50:53.487Z,21.24
2017-08-16T05:51:34.059Z,21.2
2017-08-16T05:52:14.633Z,21.2
2017-08-16T05:52:55.218Z,21.25
2017-08-16T05:53:35.787Z,21.24
2017-08-16T05:54:16.372Z,21.25
2017-08-16T05:54:56.936Z,21.17
2017-08-16T05:55:37.507Z,21.25
2017-08-16T05:56:18.098Z,21.32
2017-08-16T05:56:58.695Z,21.21
2017-08-16T05:57:39.275Z,21.24
2017-08-16T05:58:19.854Z,21.21
2017-08-16T05:59:00.442Z,21.24
2017-08-16T05:59:41.048Z,21.25
2017-08-16T06:00:21.599Z,21.21
2017-08-16T06:01:02.180Z,21.21
2017-08-16T06:01:42.756Z,21.22
2017-08-16T06:02:23.334Z,21.3
2017-08-16T06:03:03.908Z,21.36
2017-08-16T06:03:44.490Z,21.3
2017-08-16T06:04:25.050Z,21.29
2017-08-16T06:05:05.639Z,21.35
2017-08-16T06:05:46.215Z,21.29
2017-08-16T06:06:26.803Z,21.24
2017-08-16T06:07:07.371Z,21.25
2017-08-16T06:07:47.956Z,21.29
2017-08-16T06:08:28.525Z,21.21
2017-08-16T06:09:09.109Z,21.27
2017-08-16T06:09:49.686Z,21.27
2017-08-16T06:10:30.275Z,21.27
2017-08-16T06:11:10.856Z,21.3
2017-08-16T06:11:51.441Z,21.22
2017-08-16T06:12:32.030Z,21.27
2017-08-16T06:13:12.612Z,21.24
2017-08-16T06:13:53.196Z,21.35
2017-08-16T06:14:33.763Z,21.25
2017-08-16T06:15:14.366Z,21.27
2017-08-16T06:15:54.948Z,21.27
2017-08-16T06:16:35.523Z,21.32
2017-08-16T06:17:16.095Z,21.29
2017-08-16T06:17:56.681Z,21.21
2017-08-16T06:18:37.254Z,21.33
2017-08-16T06:19:17.840Z,21.29
2017-08-16T06:19:58.414Z,21.29
2017-08-16T06:20:38.997Z,21.32
2017-08-16T06:21:19.599Z,21.27
2017-08-16T06:22:00.201Z,21.3
2017-08-16T06:22:40.773Z,21.33
2017-08-16T06:23:21.385Z,21.33
2017-08-16T06:24:01.943Z,21.25
2017-08-16T06:24:42.556Z,21.27
2017-08-16T06:25:23.122Z,21.27
2017-08-16T06:26:03.691Z,21.25
2017-08-16T06:26:44.267Z,21.24
2017-08-16T06:27:24.828Z,21.21
2017-08-16T06:28:05.417Z,21.24
2017-08-16T06:28:45.997Z,21.27
2017-08-16T06:29:26.583Z,21.3
2017-08-16T06:30:07.162Z,21.21
2017-08-16T06:30:47.773Z,21.27
2017-08-16T06:31:28.353Z,21.18
2017-08-16T06:32:08.924Z,21.3
2017-08-16T06:32:49.510Z,21.24
2017-08-16T06:33:30.096Z,21.15
2017-08-16T06:34:10.671Z,21.17
2017-08-16T06:34:51.246Z,21.21
2017-08-16T06:35:31.830Z,21.18
2017-08-16T06:36:12.412Z,21.27
2017-08-16T06:36:52.976Z,21.27
2017-08-16T06:37:33.559Z,21.29
2017-08-16T06:38:14.132Z,21.21
2017-08-16T06:38:54.731Z,21.29
2017-08-16T06:39:35.307Z,21.29
2017-08-16T06:40:15.871Z,21.29
2017-08-16T06:40:56.450Z,21.25
2017-08-16T06:41:37.039Z,21.29
2017-08-16T06:42:17.611Z,21.37
2017-08-16T06:42:58.201Z,21.25
2017-08-16T06:43:38.766Z,21.29
2017-08-16T06:44:19.389Z,21.29
2017-08-16T06:44:59.987Z,21.21
2017-08-16T06:45:40.563Z,21.25
2017-08-16T06:46:21.134Z,21.18
2017-08-16T06:47:01.710Z,21.32
2017-08-16T06:47:42.277Z,21.25
2017-08-16T06:48:22.852Z,21.29
2017-08-16T06:49:03.448Z,21.25
2017-08-16T06:49:44.019Z,21.15
2017-08-16T06:50:24.603Z,21.22
2017-08-16T06:51:05.184Z,21.2
2017-08-16T06:51:45.760Z,21.22
2017-08-16T06:52:26.357Z,21.2
2017-08-16T06:53:06.939Z,21.22
2017-08-16T06:53:47.530Z,21.17
2017-08-16T06:54:28.109Z,21.21
2017-08-16T06:55:08.686Z,21.25
2017-08-16T06:55:49.289Z,21.18
2017-08-16T06:56:29.873Z,21.14
2017-08-16T06:57:10.470Z,21.09
2017-08-16T06:57:51.030Z,21.17
2017-08-16T06:58:31.614Z,21.09
2017-08-16T06:59:12.190Z,21.11
2017-08-16T06:59:52.755Z,21.14
2017-08-16T07:00:33.380Z,21.11
2017-08-16T07:01:13.971Z,21.06
2017-08-16T07:01:54.539Z,21.07
2017-08-16T07:02:35.139Z,21.07
2017-08-16T07:03:15.708Z,21.14
2017-08-16T07:03:56.278Z,21.11
2017-08-16T07:04:36.858Z,21.03
2017-08-16T07:05:17.426Z,21.2
2017-08-16T07:05:58.006Z,21.07
2017-08-16T07:06:38.590Z,21.09
2017-08-16T07:07:19.185Z,21.12
2017-08-16T07:07:59.751Z,21.07
2017-08-16T07:08:40.340Z,21.11
2017-08-16T07:09:20.960Z,21.07
2017-08-16T07:10:01.533Z,21.09
2017-08-16T07:10:42.144Z,21.14
2017-08-16T07:11:22.731Z,21.14
2017-08-16T07:12:03.314Z,21.11
2017-08-16T07:12:43.896Z,21.12
2017-08-16T07:13:24.478Z,21.12
2017-08-16T07:14:05.058Z,21.03
2017-08-16T07:14:45.648Z,21
2017-08-16T07:15:26.214Z,21
2017-08-16T07:16:06.796Z,21.11
2017-08-16T07:16:47.403Z,21.12
2017-08-16T07:17:27.979Z,21.03
2017-08-16T07:18:08.566Z,21.06
2017-08-16T07:18:49.177Z,21
2017-08-16T07:19:29.742Z,21.06
2017-08-16T07:20:10.303Z,20.97
2017-08-16T07:20:50.881Z,21.05
2017-08-16T07:21:31.446Z,21
2017-08-16T07:22:12.013Z,21.06
2017-08-16T07:22:52.612Z,20.93
2017-08-16T07:23:33.217Z,20.99
2017-08-16T07:24:13.799Z,21.03
2017-08-16T07:24:54.385Z,20.97
2017-08-16T07:25:34.968Z,20.93
2017-08-16T07:26:15.546Z,20.87
2017-08-16T07:26:56.125Z,20.97
2017-08-16T07:27:36.729Z,20.99
2017-08-16T07:28:17.308Z,21
2017-08-16T07:28:57.896Z,21
2017-08-16T07:29:38.479Z,20.96
2017-08-16T07:30:19.082Z,20.87
2017-08-16T07:30:59.674Z,20.96
2017-08-16T07:31:40.261Z,20.87
2017-08-16T07:32:20.840Z,20.93
2017-08-16T07:33:01.405Z,20.85
2017-08-16T07:33:41.974Z,20.96
2017-08-16T07:34:22.557Z,20.95
2017-08-16T07:35:03.146Z,20.95
2017-08-16T07:35:43.708Z,20.9
2017-08-16T07:36:24.302Z,20.84
2017-08-16T07:37:04.872Z,20.95
2017-08-16T07:37:45.454Z,20.95
2017-08-16T07:38:26.033Z,20.95
2017-08-16T07:39:06.651Z,20.85
2017-08-16T07:39:47.228Z,20.96
2017-08-16T07:40:27.789Z,20.84
2017-08-16T07:41:08.355Z,20.9
2017-08-16T07:41:48.932Z,20.96
2017-08-16T07:42:29.503Z,20.92
2017-08-16T07:43:10.059Z,20.93
2017-08-16T07:43:50.642Z,20.88
2017-08-16T07:44:31.249Z,20.9
2017-08-16T07:45:11.844Z,20.85
2017-08-16T07:45:52.421Z,20.81
2017-08-16T07:46:32.995Z,20.74
2017-08-16T07:47:13.567Z,20.84
2017-08-16T07:47:54.164Z,20.81
2017-08-16T07:48:34.761Z,20.8
2017-08-16T07:49:15.329Z,20.74
2017-08-16T07:49:55.948Z,20.77
2017-08-16T07:50:36.540Z,20.77
2017-08-16T07:51:17.131Z,20.75
2017-08-16T07:51:57.732Z,20.74
2017-08-16T07:52:38.321Z,20.8
2017-08-16T07:53:18.917Z,20.78
2017-08-16T07:53:59.529Z,20.77
2017-08-16T07:54:40.138Z,20.7
2017-08-16T07:55:20.699Z,20.72
2017-08-16T07:56:01.272Z,20.81
2017-08-16T07:56:41.869Z,20.72
2017-08-16T07:57:22.433Z,20.69
2017-08-16T07:58:03.034Z,20.66
2017-08-16T07:58:43.607Z,20.66
2017-08-16T07:59:24.192Z,20.65
2017-08-16T08:00:04.767Z,20.67
2017-08-16T08:00:45.355Z,20.66
2017-08-16T08:01:25.962Z,20.63
2017-08-16T08:02:06.523Z,20.6
2017-08-16T08:02:47.105Z,20.62
2017-08-16T08:03:27.695Z,20.66
2017-08-16T08:04:08.274Z,20.67
2017-08-16T08:04:48.886Z,20.62
2017-08-16T08:05:29.456Z,20.56
2017-08-16T08:06:10.029Z,20.52
2017-08-16T08:06:50.605Z,20.58
2017-08-16T08:07:31.197Z,20.59
2017-08-16T08:08:11.773Z,20.6
2017-08-16T08:08:52.339Z,20.48
2017-08-16T08:09:32.924Z,20.47
2017-08-16T08:10:13.506Z,20.5
2017-08-16T08:10:54.073Z,20.56
2017-08-16T08:11:34.637Z,20.52
2017-08-16T08:12:15.201Z,20.52
2017-08-16T08:12:55.768Z,20.39
2017-08-16T08:13:36.372Z,20.44
2017-08-16T08:14:16.941Z,20.39
2017-08-16T08:14:57.554Z,20.34
2017-08-16T08:15:38.136Z,20.26
2017-08-16T08:16:18.722Z,20.4
2017-08-16T08:16:59.298Z,20.34
2017-08-16T08:17:39.875Z,20.4
2017-08-16T08:18:20.465Z,20.29
2017-08-16T08:19:01.033Z,20.31
2017-08-16T08:19:41.628Z,20.29
2017-08-16T08:20:22.183Z,20.29
2017-08-16T08:21:02.753Z,20.29
2017-08-16T08:21:43.345Z,20.29
2017-08-16T08:22:23.913Z,20.28
2017-08-16T08:23:04.485Z,20.29
2017-08-16T08:23:45.068Z,20.26
2017-08-16T08:24:25.637Z,20.36
2017-08-16T08:25:06.220Z,20.29
2017-08-16T08:25:46.794Z,20.32
2017-08-16T08:26:27.370Z,20.31
2017-08-16T08:27:07.947Z,20.26
2017-08-16T08:27:48.530Z,20.24
2017-08-16T08:28:29.111Z,20.37
2017-08-16T08:29:09.705Z,20.37
2017-08-16T08:29:50.391Z,20.29
2017-08-16T08:30:30.997Z,20.31
2017-08-16T08:31:11.571Z,20.19
2017-08-16T08:31:52.157Z,20.37
2017-08-16T08:32:32.741Z,20.32
2017-08-16T08:33:13.325Z,20.39
2017-08-16T08:33:53.911Z,20.31
2017-08-16T08:34:34.510Z,20.32
2017-08-16T08:35:15.078Z,20.26
2017-08-16T08:35:55.654Z,20.34
2017-08-16T08:36:36.214Z,20.29
2017-08-16T08:37:16.792Z,20.36
2017-08-16T08:37:57.388Z,20.26
2017-08-16T08:38:37.978Z,20.29
2017-08-16T08:39:18.589Z,20.41
2017-08-16T08:39:59.188Z,20.4
2017-08-16T08:40:39.755Z,20.26
2017-08-16T08:41:20.335Z,20.32
2017-08-16T08:42:00.915Z,20.37
2017-08-16T08:42:41.475Z,20.39
2017-08-16T08:43:22.056Z,20.36
2017-08-16T08:44:02.636Z,20.28
2017-08-16T08:44:43.212Z,20.29
2017-08-16T08:45:23.823Z,20.4